Time;durP1;ratioP1;P1;durP2;ratioP2;P2;SDS_P1;SDS_P2;PMS_P1;PMS_P2;Temp;Humidity;BMP_temperature;BMP_pressure;BME280_temperature;BME280_humidity;BME280_pressure;Samples;Min_cycle;Max_cycle;Signal;HPM_P1;HPM_P2
2022/02/11 00:01:00;;;;;;;;;;;;;;;4.97;100.00;96162.75;1038903;28;20263;-74
2022/02/11 00:01:12;;;;;;;;;;;;;;;4.95;100.00;96154.38;1035818;28;19925;-74
2022/02/11 00:02:18;;;;;;;;;;;;;;;4.95;100.00;96154.38;1034687;28;19922;-74
2022/02/11 00:04:51;;;;;;;;;;;;;;;4.93;100.00;96153.81;1039219;28;19921;-76
2022/02/11 00:06:27;;;;;;;;;;;;;;;4.97;100.00;96154.19;1042962;28;19952;-72
2022/02/11 00:07:00;;;;;;;;;;;;;;;4.95;100.00;96156.97;1042946;28;19935;-74
2022/02/11 00:07:30;;;;;;;;;;;;;;;4.94;100.00;96158.00;1043117;28;20012;-75
2022/02/11 00:08:01;;;;;;;;;;;;;;;4.97;100.00;96154.97;1039032;28;20843;-74
2022/02/11 00:08:31;;;;;;;;;;;;;;;5.03;100.00;96152.50;1030732;28;19914;-74
2022/02/11 00:09:02;;;;;;;;;;;;;;;5.02;100.00;96148.31;1030613;28;19972;-74
2022/02/11 00:09:32;;;;;;;;;;;;;;;5.08;100.00;96147.44;1030924;28;19914;-74
2022/02/11 00:10:03;;;;;;;;;;;;;;;5.11;100.00;96145.22;1034886;28;19917;-73
2022/02/11 00:10:34;;;;;;;;;;;;;;;5.10;100.00;96145.44;1030487;28;20514;-74
2022/02/11 00:11:04;;;;;;;;;;;;;;;5.09;100.00;96149.81;1027207;28;19929;-73
2022/02/11 00:11:35;;;;;;;;;;;;;;;5.10;100.00;96140.25;1034820;28;19921;-72
2022/02/11 00:12:06;;;;;;;;;;;;;;;5.12;100.00;96154.59;1030902;28;20092;-75
2022/02/11 00:12:36;;;;;;;;;;;;;;;5.13;100.00;96147.56;1030472;28;19918;-74
2022/02/11 00:13:06;;;;;;;;;;;;;;;5.11;100.00;96149.63;1034936;28;19996;-74
2022/02/11 00:13:37;;;;;;;;;;;;;;;5.10;100.00;96150.63;1034834;28;19917;-74
2022/02/11 00:14:08;;;;;;;;;;;;;;;5.06;100.00;96145.06;1038937;28;19928;-74
2022/02/11 00:15:03;;;;;;;;;;;;;;;5.08;100.00;96155.25;1034966;28;19917;-73
2022/02/11 00:16:04;;;;;;;;;;;;;;;5.04;100.00;96146.31;1039046;28;20036;-74
2022/02/11 00:16:36;;;;;;;;;;;;;;;5.03;100.00;96147.28;1042316;28;19975;-74
2022/02/11 00:17:06;;;;;;;;;;;;;;;5.05;100.00;96146.06;1038981;28;19951;-73
2022/02/11 00:17:36;;;;;;;;;;;;;;;5.03;100.00;96144.69;1039688;28;19986;-74
2022/02/11 00:18:07;;;;;;;;;;;;;;;5.03;100.00;96150.72;1038907;28;19922;-74
2022/02/11 00:18:37;;;;;;;;;;;;;;;5.01;100.00;96151.94;1034913;28;19921;-75
2022/02/11 00:19:08;;;;;;;;;;;;;;;4.98;100.00;96147.94;1029194;28;20474;-75
2022/02/11 00:19:38;;;;;;;;;;;;;;;5.00;100.00;96145.13;1018829;29;20328;-75
2022/02/11 00:20:09;;;;;;;;;;;;;;;5.01;100.00;96149.34;1022976;28;19918;-73
2022/02/11 00:20:39;;;;;;;;;;;;;;;5.04;100.00;96146.31;1030803;28;20328;-73
2022/02/11 00:21:09;;;;;;;;;;;;;;;5.03;100.00;96149.88;1034767;28;20188;-74
2022/02/11 00:21:40;;;;;;;;;;;;;;;5.04;100.00;96143.69;1030682;28;20434;-74
2022/02/11 00:22:11;;;;;;;;;;;;;;;5.01;100.00;96144.91;1034798;28;19917;-73
2022/02/11 00:22:42;;;;;;;;;;;;;;;5.00;100.00;96137.31;1034762;28;19925;-75
2022/02/11 00:23:12;;;;;;;;;;;;;;;4.98;100.00;96137.56;1039095;28;19995;-74
2022/02/11 00:23:42;;;;;;;;;;;;;;;4.92;100.00;96136.59;1042804;28;20290;-74
2022/02/11 00:24:14;;;;;;;;;;;;;;;4.95;100.00;96137.97;1036197;28;20484;-74
2022/02/11 00:24:45;;;;;;;;;;;;;;;4.92;100.00;96128.81;1034977;28;19963;-75
2022/02/11 00:25:16;;;;;;;;;;;;;;;4.92;100.00;96138.41;1030840;28;19922;-74
2022/02/11 00:25:55;;;;;;;;;;;;;;;4.93;100.00;96137.41;1034856;28;20000;-74
2022/02/11 00:26:30;;;;;;;;;;;;;;;4.89;100.00;96126.63;1036518;28;19921;-74
2022/02/11 00:27:34;;;;;;;;;;;;;;;4.89;100.00;96129.22;1039129;28;19923;-73
2022/02/11 00:32:18;;;;;;;;;;;;;;;4.92;100.00;96122.81;1031905;28;19910;-74
2022/02/11 00:33:39;;;;;;;;;;;;;;;4.86;100.00;96124.50;1038624;28;19921;-75
2022/02/11 00:34:10;;;;;;;;;;;;;;;4.86;100.00;96128.88;1043057;28;19917;-75
2022/02/11 00:34:49;;;;;;;;;;;;;;;4.88;100.00;96132.06;1038881;28;19975;-76
2022/02/11 00:35:29;;;;;;;;;;;;;;;4.91;100.00;96122.03;1040329;28;19929;-74
2022/02/11 00:36:03;;;;;;;;;;;;;;;4.91;100.00;96122.03;1034678;28;19925;-73
2022/02/11 00:36:46;;;;;;;;;;;;;;;4.90;100.00;96123.03;1037766;28;19921;-73
2022/02/11 00:37:21;;;;;;;;;;;;;;;4.89;100.00;96124.03;1038927;28;20318;-74
2022/02/11 00:37:51;;;;;;;;;;;;;;;4.90;100.00;96124.84;1037316;28;20306;-74
2022/02/11 00:38:32;;;;;;;;;;;;;;;4.91;100.00;96116.81;1038873;28;19917;-75
2022/02/11 00:39:18;;;;;;;;;;;;;;;4.94;100.00;96121.59;1035066;28;20229;-73
2022/02/11 00:40:09;;;;;;;;;;;;;;;4.94;100.00;96115.59;1034797;28;19921;-73
2022/02/11 01:02:51;;;;;;;;;;;;;;;4.90;100.00;96115.25;1047801;28;19920;-74
2022/02/11 01:04:00;;;;;;;;;;;;;;;4.92;100.00;96110.59;1039486;28;19917;-73
2022/02/11 01:04:30;;;;;;;;;;;;;;;4.92;100.00;96110.59;1039616;28;20398;-75
2022/02/11 01:05:01;;;;;;;;;;;;;;;5.00;100.00;96114.72;1038579;28;19917;-76
2022/02/11 01:05:31;;;;;;;;;;;;;;;5.00;100.00;96113.91;1039587;28;19917;-74
2022/02/11 01:06:01;;;;;;;;;;;;;;;4.99;100.00;96115.72;1035421;28;19918;-74
2022/02/11 01:06:31;;;;;;;;;;;;;;;4.83;100.00;96082.50;1027447;28;19918;-72
2022/02/11 01:07:02;;;;;;;;;;;;;;;4.99;100.00;96101.94;1031364;28;19922;-74
2022/02/11 01:07:32;;;;;;;;;;;;;;;4.97;100.00;96110.75;1035508;28;20032;-74
2022/02/11 01:08:02;;;;;;;;;;;;;;;4.99;100.00;96109.75;1039634;28;19909;-73
2022/02/11 01:08:33;;;;;;;;;;;;;;;4.98;100.00;96101.16;1039573;28;20300;-72
2022/02/11 01:09:03;;;;;;;;;;;;;;;5.02;100.00;96110.09;1035242;28;20280;-74
2022/02/11 01:09:34;;;;;;;;;;;;;;;4.99;100.00;96105.31;1035487;28;20354;-74
2022/02/11 01:10:04;;;;;;;;;;;;;;;4.95;100.00;96106.78;1027609;28;19976;-74
2022/02/11 01:10:35;;;;;;;;;;;;;;;4.97;100.00;96110.75;1035423;28;19913;-74
2022/02/11 01:11:05;;;;;;;;;;;;;;;4.95;100.00;96107.56;1035419;28;19924;-73
2022/02/11 01:11:45;;;;;;;;;;;;;;;4.95;100.00;96111.97;1035568;28;20031;-74
2022/02/11 01:12:15;;;;;;;;;;;;;;;4.96;100.00;96103.16;1040301;28;19948;-74
2022/02/11 01:12:46;;;;;;;;;;;;;;;4.95;100.00;96107.56;1045235;28;20275;-73
2022/02/11 01:13:17;;;;;;;;;;;;;;;4.92;100.00;96112.41;1043497;28;19951;-74
2022/02/11 01:13:47;;;;;;;;;;;;;;;4.91;100.00;96110.81;1043725;28;19947;-76
2022/02/11 01:14:18;;;;;;;;;;;;;;;4.96;100.00;96111.78;1039279;28;19918;-74
2022/02/11 01:14:52;;;;;;;;;;;;;;;4.94;100.00;96111.19;1035753;28;19932;-73
2022/02/11 01:15:23;;;;;;;;;;;;;;;4.91;100.00;96118.63;1039412;28;20403;-73
2022/02/11 01:16:07;;;;;;;;;;;;;;;4.86;100.00;96113.28;1056939;23;20439;-72
2022/02/11 01:16:52;;;;;;;;;;;;;;;4.87;100.00;96113.06;1030951;28;20028;-73
2022/02/11 01:17:33;;;;;;;;;;;;;;;4.85;100.00;96117.69;1034658;28;20497;-73
2022/02/11 01:18:07;;;;;;;;;;;;;;;4.81;100.00;96118.34;1039912;28;19916;-72
2022/02/11 01:18:39;;;;;;;;;;;;;;;4.78;100.00;96111.75;1035180;28;20401;-73
2022/02/11 01:19:23;;;;;;;;;;;;;;;4.79;100.00;96123.75;1035254;28;19914;-73
2022/02/11 01:19:59;;;;;;;;;;;;;;;4.74;100.00;96126.22;1035425;28;19909;-73
2022/02/11 01:20:45;;;;;;;;;;;;;;;4.75;100.00;96121.81;1034432;28;19909;-73
2022/02/11 01:21:22;;;;;;;;;;;;;;;4.76;100.00;96121.56;1035201;28;19916;-72
2022/02/11 01:22:50;;;;;;;;;;;;;;;4.72;100.00;96117.81;1034844;28;20053;-72
2022/02/11 01:23:45;;;;;;;;;;;;;;;4.70;100.00;96125.06;1035656;28;19913;-73
2022/02/11 01:25:28;;;;;;;;;;;;;;;4.73;100.00;96119.44;1031583;28;19964;-73
2022/02/11 01:26:25;;;;;;;;;;;;;;;4.72;100.00;96121.22;1030056;28;19906;-72
2022/02/11 01:28:53;;;;;;;;;;;;;;;4.70;100.00;96117.25;1032513;28;20465;-73
2022/02/11 01:32:01;;;;;;;;;;;;;;;4.48;100.00;96068.28;1035523;28;19909;-72
2022/02/11 01:33:57;;;;;;;;;;;;;;;4.66;100.00;96093.50;1034705;28;20003;-70
2022/02/11 01:34:52;;;;;;;;;;;;;;;4.68;100.00;96091.47;1035755;28;19964;-71
2022/02/11 01:37:05;;;;;;;;;;;;;;;4.69;100.00;96092.25;1031398;28;19914;-72
2022/02/11 01:40:19;;;;;;;;;;;;;;;4.67;100.00;96094.28;1033351;28;19906;-71
2022/02/11 01:49:05;;;;;;;;;;;;;;;4.81;100.00;96074.94;1022792;29;19943;-71
2022/02/11 01:50:38;;;;;;;;;;;;;;;4.77;100.00;96073.78;1032829;28;20429;-73
2022/02/11 01:53:25;;;;;;;;;;;;;;;4.79;100.00;96076.16;1028155;28;19973;-71
2022/02/11 01:56:15;;;;;;;;;;;;;;;4.81;100.00;96053.34;1037164;28;19917;-72
2022/02/11 01:57:05;;;;;;;;;;;;;;;4.80;100.00;96055.16;1039733;28;20534;-73
2022/02/11 02:12:15;;;;;;;;;;;;;;;4.86;100.00;96076.88;1036017;28;19917;-72
2022/02/11 02:13:51;;;;;;;;;;;;;;;4.87;100.00;96079.28;1031196;28;19921;-72
2022/02/11 02:14:42;;;;;;;;;;;;;;;4.85;100.00;96076.09;1033034;28;19972;-71
2022/02/11 02:20:49;;;;;;;;;;;;;;;4.85;100.00;96073.47;1027667;28;20012;-70
2022/02/11 02:24:06;;;;;;;;;;;;;;;4.83;100.00;96064.31;1023494;28;20720;-72
2022/02/11 02:24:07;;;;;;;;;;;;;;;4.83;100.00;96070.31;1031727;28;20404;-71
2022/02/11 02:25:02;;;;;;;;;;;;;;;4.84;100.00;96066.72;1036420;28;19925;-72
2022/02/11 02:25:44;;;;;;;;;;;;;;;4.85;100.00;96068.28;1035979;28;20366;-72
2022/02/11 02:34:05;;;;;;;;;;;;;;;4.88;100.00;96061.88;1031580;28;20549;-71
2022/02/11 02:35:40;;;;;;;;;;;;;;;4.82;100.00;96054.94;1035939;28;19926;-72
2022/02/11 02:38:35;;;;;;;;;;;;;;;4.86;100.00;96067.28;1019310;29;20306;-71
2022/02/11 02:56:46;;;;;;;;;;;;;;;4.81;100.00;96064.53;1033083;28;19922;-72
2022/02/11 02:58:12;;;;;;;;;;;;;;;4.77;100.00;96060.78;1035476;28;19999;-71
2022/02/11 02:58:54;;;;;;;;;;;;;;;4.79;100.00;96056.16;1031952;28;19917;-73
2022/02/11 03:35:18;;;;;;;;;;;;;;;4.64;100.00;96069.53;1035435;28;20283;-70
2022/02/11 03:49:27;;;;;;;;;;;;;;;4.60;100.00;96068.38;1034143;28;19968;-70
2022/02/11 03:54:22;;;;;;;;;;;;;;;4.54;100.00;96073.63;1035007;28;19957;-70
2022/02/11 03:59:06;;;;;;;;;;;;;;;4.47;100.00;96082.28;1038638;28;19921;-70
2022/02/11 04:20:50;;;;;;;;;;;;;;;4.24;100.00;96134.84;1035037;28;20004;-68
2022/02/11 04:28:18;;;;;;;;;;;;;;;3.50;100.00;96145.94;1042870;28;19916;-70
2022/02/11 04:52:40;;;;;;;;;;;;;;;3.44;100.00;96152.75;1035162;28;19922;-68
2022/02/11 04:55:28;;;;;;;;;;;;;;;2.85;100.00;96174.50;1034645;28;20073;-70
2022/02/11 04:56:03;;;;;;;;;;;;;;;2.83;100.00;96173.91;1034596;28;19932;-68
2022/02/11 04:56:36;;;;;;;;;;;;;;;2.84;100.00;96178.06;1031090;28;19990;-68
2022/02/11 05:00:05;;;;;;;;;;;;;;;2.81;100.00;96168.09;1027432;28;19981;-69
2022/02/11 05:00:38;;;;;;;;;;;;;;;2.81;100.00;96174.09;1026668;28;20606;-68
2022/02/11 05:01:08;;;;;;;;;;;;;;;2.80;100.00;96176.88;1026670;28;19918;-70
2022/02/11 05:01:41;;;;;;;;;;;;;;;2.80;100.00;96172.50;1023811;28;20500;-70
2022/02/11 05:02:11;;;;;;;;;;;;;;;2.80;100.00;96180.28;1027101;28;20387;-69
2022/02/11 05:02:42;;;;;;;;;;;;;;;2.78;100.00;96184.88;1026815;28;19918;-68
2022/02/11 05:03:12;;;;;;;;;;;;;;;2.80;100.00;96187.25;1026872;28;19918;-70
2022/02/11 05:03:42;;;;;;;;;;;;;;;2.78;100.00;96184.06;1025793;28;19972;-69
2022/02/11 05:04:13;;;;;;;;;;;;;;;2.78;100.00;96184.06;1022686;28;19937;-69
2022/02/11 05:04:43;;;;;;;;;;;;;;;2.77;100.00;96190.25;1018874;29;19907;-70
2022/02/11 05:05:14;;;;;;;;;;;;;;;2.75;100.00;96189.63;1022990;29;20538;-68
2022/02/11 05:05:50;;;;;;;;;;;;;;;2.77;100.00;96187.66;1018837;29;19914;-70
2022/02/11 05:06:22;;;;;;;;;;;;;;;2.76;100.00;96193.84;1020306;28;19915;-69
2022/02/11 05:06:52;;;;;;;;;;;;;;;2.73;100.00;96197.63;1026712;28;19910;-69
2022/02/11 05:07:22;;;;;;;;;;;;;;;2.72;100.00;96205.63;1023898;28;19947;-69
2022/02/11 05:07:52;;;;;;;;;;;;;;;2.73;100.00;96199.44;1027837;28;19960;-68
2022/02/11 05:08:24;;;;;;;;;;;;;;;2.74;100.00;96198.41;1026596;28;20376;-69
2022/02/11 05:08:54;;;;;;;;;;;;;;;2.74;100.00;96203.59;1026838;28;19910;-68
2022/02/11 05:09:25;;;;;;;;;;;;;;;2.73;100.00;96197.63;1026761;28;19914;-69
2022/02/11 05:09:55;;;;;;;;;;;;;;;2.71;100.00;96204.00;1027154;28;19918;-69
2022/02/11 05:10:25;;;;;;;;;;;;;;;2.69;100.00;96196.44;1026742;28;19917;-70
2022/02/11 05:10:56;;;;;;;;;;;;;;;2.73;100.00;96202.03;1030586;28;20696;-69
2022/02/11 05:11:26;;;;;;;;;;;;;;;2.70;100.00;96199.81;1035191;28;19944;-69
2022/02/11 05:11:56;;;;;;;;;;;;;;;2.69;100.00;96195.66;1026638;28;19910;-69
2022/02/11 05:12:27;;;;;;;;;;;;;;;2.69;100.00;96211.19;1026508;28;19980;-69
2022/02/11 05:12:57;;;;;;;;;;;;;;;2.70;100.00;96202.41;1026880;28;19965;-70
2022/02/11 05:13:27;;;;;;;;;;;;;;;2.70;100.00;96207.59;1026242;28;20399;-70
2022/02/11 05:13:58;;;;;;;;;;;;;;;2.69;100.00;96206.81;1034515;28;20405;-68
2022/02/11 05:14:28;;;;;;;;;;;;;;;2.69;100.00;96209.41;1038888;28;19919;-68
2022/02/11 05:14:58;;;;;;;;;;;;;;;2.68;100.00;96205.19;1038735;28;19909;-68
2022/02/11 05:15:29;;;;;;;;;;;;;;;2.65;100.00;96205.63;1039062;28;19980;-69
2022/02/11 05:15:59;;;;;;;;;;;;;;;2.66;100.00;96207.22;1034478;28;19917;-69
2022/02/11 05:16:29;;;;;;;;;;;;;;;2.66;100.00;96207.22;1030575;28;19976;-68
2022/02/11 05:17:00;;;;;;;;;;;;;;;2.66;100.00;96212.38;1030630;28;19921;-69
2022/02/11 05:17:30;;;;;;;;;;;;;;;2.66;100.00;96211.59;1026614;28;19964;-68
2022/02/11 05:18:02;;;;;;;;;;;;;;;2.61;100.00;96212.19;1026814;28;19922;-69
2022/02/11 05:18:32;;;;;;;;;;;;;;;2.60;100.00;96213.97;1030673;28;19922;-68
2022/02/11 05:19:03;;;;;;;;;;;;;;;2.60;100.00;96213.19;1026494;28;20304;-69
2022/02/11 05:19:33;;;;;;;;;;;;;;;2.59;100.00;96214.19;1030895;28;19921;-69
2022/02/11 05:20:04;;;;;;;;;;;;;;;2.62;100.00;96215.59;1026554;28;19924;-70
2022/02/11 05:20:34;;;;;;;;;;;;;;;2.62;100.00;96213.00;1026796;28;19915;-69
2022/02/11 05:21:05;;;;;;;;;;;;;;;2.63;100.00;96217.19;1030564;28;20033;-69
2022/02/11 05:21:35;;;;;;;;;;;;;;;2.60;100.00;96218.38;1030838;28;19918;-69
2022/02/11 05:22:05;;;;;;;;;;;;;;;2.59;100.00;96217.56;1026610;28;20366;-71
2022/02/11 05:22:36;;;;;;;;;;;;;;;2.63;100.00;96222.34;1026676;28;19913;-69
2022/02/11 05:23:06;;;;;;;;;;;;;;;2.62;100.00;96215.59;1022525;29;20049;-68
2022/02/11 05:23:37;;;;;;;;;;;;;;;2.59;100.00;96214.97;1022545;28;19930;-69
2022/02/11 05:24:07;;;;;;;;;;;;;;;2.58;100.00;96216.00;1030474;28;19945;-69
2022/02/11 05:24:37;;;;;;;;;;;;;;;2.60;100.00;96218.38;1034820;28;19921;-70
2022/02/11 05:25:08;;;;;;;;;;;;;;;2.63;100.00;96222.34;1034625;28;19921;-70
2022/02/11 05:25:39;;;;;;;;;;;;;;;2.62;100.00;96221.56;1034721;28;19917;-69
2022/02/11 05:26:09;;;;;;;;;;;;;;;2.63;100.00;96228.31;1034899;28;20016;-69
2022/02/11 05:26:40;;;;;;;;;;;;;;;2.64;100.00;96223.94;1035756;28;19917;-69
2022/02/11 05:27:10;;;;;;;;;;;;;;;2.63;100.00;96224.94;1035383;28;20003;-69
2022/02/11 05:27:41;;;;;;;;;;;;;;;2.60;100.00;96219.16;1033277;28;19918;-68
2022/02/11 05:28:11;;;;;;;;;;;;;;;2.60;100.00;96221.75;1023543;28;19926;-67
2022/02/11 05:28:42;;;;;;;;;;;;;;;2.59;100.00;96221.97;1023399;29;19934;-68
2022/02/11 05:29:12;;;;;;;;;;;;;;;2.60;100.00;96219.16;1019195;29;19949;-69
2022/02/11 05:29:42;;;;;;;;;;;;;;;2.66;100.00;96221.97;1019478;29;20590;-68
2022/02/11 05:30:13;;;;;;;;;;;;;;;2.66;100.00;96222.75;1019299;29;20690;-68
2022/02/11 05:30:43;;;;;;;;;;;;;;;2.66;100.00;96221.97;1019903;28;19926;-68
2022/02/11 05:31:13;;;;;;;;;;;;;;;2.63;100.00;96224.94;1025997;28;19922;-70
2022/02/11 05:31:44;;;;;;;;;;;;;;;2.65;100.00;96228.13;1027677;28;19922;-70
2022/02/11 05:32:14;;;;;;;;;;;;;;;2.63;100.00;96223.16;1031242;28;19948;-69
2022/02/11 05:32:44;;;;;;;;;;;;;;;2.64;100.00;96223.94;1025930;28;20303;-68
2022/02/11 05:33:15;;;;;;;;;;;;;;;2.65;100.00;96220.34;1027705;28;19969;-68
2022/02/11 05:33:47;;;;;;;;;;;;;;;2.63;100.00;96230.13;1026671;28;19925;-70
2022/02/11 05:34:18;;;;;;;;;;;;;;;2.63;100.00;96223.16;1031612;28;19964;-70
2022/02/11 05:34:48;;;;;;;;;;;;;;;2.64;100.00;96218.75;1036099;28;20448;-70
2022/02/11 05:35:19;;;;;;;;;;;;;;;2.65;100.00;96234.13;1035678;28;19918;-68
2022/02/11 05:35:52;;;;;;;;;;;;;;;2.62;100.00;96221.56;1039768;28;19913;-68
2022/02/11 05:36:22;;;;;;;;;;;;;;;2.65;100.00;96222.94;1035426;28;20334;-68
2022/02/11 05:36:52;;;;;;;;;;;;;;;2.65;100.00;96228.13;1035397;28;19935;-68
2022/02/11 05:37:24;;;;;;;;;;;;;;;2.64;100.00;96234.31;1027515;28;19929;-69
2022/02/11 05:37:54;;;;;;;;;;;;;;;2.65;100.00;96226.34;1027126;28;20017;-68
2022/02/11 05:38:24;;;;;;;;;;;;;;;2.67;100.00;96223.53;1023413;29;19923;-68
2022/02/11 05:38:54;;;;;;;;;;;;;;;2.68;100.00;96225.13;1023708;28;20355;-70
2022/02/11 05:39:25;;;;;;;;;;;;;;;2.66;100.00;96234.91;1031374;28;19944;-68
2022/02/11 05:39:55;;;;;;;;;;;;;;;2.68;100.00;96235.50;1031371;28;20437;-68
2022/02/11 05:40:25;;;;;;;;;;;;;;;2.67;100.00;96236.50;1035409;28;19925;-69
2022/02/11 05:40:56;;;;;;;;;;;;;;;2.67;100.00;96233.91;1039622;28;19917;-69
2022/02/11 05:41:26;;;;;;;;;;;;;;;2.66;100.00;96233.13;1031515;28;19924;-69
2022/02/11 05:41:56;;;;;;;;;;;;;;;2.67;100.00;96231.31;1031033;28;20419;-68
2022/02/11 05:42:28;;;;;;;;;;;;;;;2.67;100.00;96229.53;1031383;28;19909;-69
2022/02/11 05:42:58;;;;;;;;;;;;;;;2.66;100.00;96232.31;1031395;28;19914;-71
2022/02/11 05:43:29;;;;;;;;;;;;;;;2.67;100.00;96233.91;1034940;28;19914;-68
2022/02/11 05:43:59;;;;;;;;;;;;;;;2.66;100.00;96237.50;1031124;28;20296;-69
2022/02/11 05:44:29;;;;;;;;;;;;;;;2.65;100.00;96238.47;1027254;28;19924;-68
2022/02/11 05:44:59;;;;;;;;;;;;;;;2.65;100.00;96231.53;1031302;28;19922;-69
2022/02/11 05:45:30;;;;;;;;;;;;;;;2.65;100.00;96233.28;1031674;28;19960;-68
2022/02/11 05:46:00;;;;;;;;;;;;;;;2.63;100.00;96238.69;1031421;28;19944;-70
2022/02/11 05:46:30;;;;;;;;;;;;;;;2.65;100.00;96241.06;1034774;28;19920;-69
2022/02/11 05:47:01;;;;;;;;;;;;;;;2.64;100.00;96234.31;1031486;28;19910;-68
2022/02/11 05:47:31;;;;;;;;;;;;;;;2.62;100.00;96236.31;1027387;28;19965;-68
2022/02/11 05:48:01;;;;;;;;;;;;;;;2.62;100.00;96231.13;1031169;28;19918;-68
2022/02/11 05:48:33;;;;;;;;;;;;;;;2.66;100.00;96237.50;1031634;28;20580;-68
2022/02/11 05:49:03;;;;;;;;;;;;;;;2.66;100.00;96237.50;1035443;28;19910;-67
2022/02/11 05:49:34;;;;;;;;;;;;;;;2.63;100.00;96237.91;1034487;28;19928;-67
2022/02/11 05:50:04;;;;;;;;;;;;;;;2.65;100.00;96241.06;1030981;28;20406;-69
2022/02/11 05:50:34;;;;;;;;;;;;;;;2.65;100.00;96241.88;1027192;28;20277;-68
2022/02/11 05:51:05;;;;;;;;;;;;;;;2.62;100.00;96239.69;1023255;29;19919;-69
2022/02/11 05:51:35;;;;;;;;;;;;;;;2.64;100.00;96242.88;1027322;28;19937;-68
2022/02/11 05:52:06;;;;;;;;;;;;;;;2.64;100.00;96244.66;1027030;28;19928;-67
2022/02/11 05:52:36;;;;;;;;;;;;;;;2.62;100.00;96242.28;1031578;28;19921;-69
2022/02/11 05:53:08;;;;;;;;;;;;;;;2.62;100.00;96241.50;1027249;28;19930;-69
2022/02/11 05:53:38;;;;;;;;;;;;;;;2.58;100.00;96241.88;1026924;28;20491;-66
2022/02/11 05:54:09;;;;;;;;;;;;;;;2.57;100.00;96253.22;1031355;28;19944;-74
2022/02/11 05:54:39;;;;;;;;;;;;;;;2.55;100.00;96252.66;1031271;28;20008;-72
2022/02/11 05:55:10;;;;;;;;;;;;;;;2.55;100.00;96252.66;1032045;28;20434;-73
2022/02/11 05:55:40;;;;;;;;;;;;;;;2.55;100.00;96254.44;1035228;28;20723;-74
2022/02/11 05:56:10;;;;;;;;;;;;;;;2.56;100.00;96250.84;1034499;28;20016;-73
2022/02/11 05:56:40;;;;;;;;;;;;;;;2.57;100.00;96258.41;1031560;28;19913;-73
2022/02/11 05:57:11;;;;;;;;;;;;;;;2.54;100.00;96256.22;1033864;28;19959;-74
2022/02/11 05:57:41;;;;;;;;;;;;;;;2.55;100.00;96257.81;1035556;28;19968;-72
2022/02/11 05:58:11;;;;;;;;;;;;;;;2.54;100.00;96256.22;1031079;28;20197;-72
2022/02/11 05:58:42;;;;;;;;;;;;;;;2.55;100.00;96262.22;1026991;28;20069;-73
2022/02/11 05:59:12;;;;;;;;;;;;;;;2.56;100.00;96262.00;1023164;28;19918;-72
2022/02/11 05:59:42;;;;;;;;;;;;;;;2.57;100.00;96271.38;1023197;28;20370;-74
2022/02/11 06:00:13;;;;;;;;;;;;;;;2.57;100.00;96270.56;1026903;28;19918;-72
2022/02/11 06:00:43;;;;;;;;;;;;;;;2.55;100.00;96265.59;1035089;28;19917;-72
2022/02/11 06:01:13;;;;;;;;;;;;;;;2.54;100.00;96270.97;1031121;28;19917;-73
2022/02/11 06:01:44;;;;;;;;;;;;;;;2.53;100.00;96270.16;1027221;28;19953;-71
2022/02/11 06:02:14;;;;;;;;;;;;;;;2.51;100.00;96277.31;1029035;28;20012;-72
2022/02/11 06:02:44;;;;;;;;;;;;;;;2.50;100.00;96277.53;1030977;28;19914;-72
2022/02/11 06:03:14;;;;;;;;;;;;;;;2.51;100.00;96276.53;1031424;28;20554;-72
2022/02/11 06:03:45;;;;;;;;;;;;;;;2.49;100.00;96284.53;1030237;28;20021;-72
2022/02/11 06:04:15;;;;;;;;;;;;;;;2.52;100.00;96284.13;1031039;28;19913;-71
2022/02/11 06:04:45;;;;;;;;;;;;;;;2.50;100.00;96285.31;1031276;28;19918;-71
2022/02/11 06:05:16;;;;;;;;;;;;;;;2.48;100.00;96282.94;1027088;28;20018;-70
2022/02/11 06:05:47;;;;;;;;;;;;;;;2.45;100.00;96285.91;1034558;28;19921;-73
2022/02/11 06:06:17;;;;;;;;;;;;;;;2.44;100.00;96286.88;1035161;28;19922;-72
2022/02/11 06:06:48;;;;;;;;;;;;;;;2.43;100.00;96293.06;1031099;28;20303;-72
2022/02/11 06:07:18;;;;;;;;;;;;;;;2.46;100.00;96290.09;1026979;28;19919;-71
2022/02/11 06:07:49;;;;;;;;;;;;;;;2.45;100.00;96292.84;1027012;28;19918;-72
2022/02/11 06:08:19;;;;;;;;;;;;;;;2.43;100.00;96289.69;1026992;28;19919;-72
2022/02/11 06:08:50;;;;;;;;;;;;;;;2.41;100.00;96295.03;1025360;28;19910;-72
2022/02/11 06:09:20;;;;;;;;;;;;;;;2.40;100.00;96290.88;1035026;28;20394;-71
2022/02/11 06:09:50;;;;;;;;;;;;;;;2.43;100.00;96297.47;1035114;28;19913;-72
2022/02/11 06:10:20;;;;;;;;;;;;;;;2.41;100.00;96295.03;1035289;28;19929;-72
2022/02/11 06:10:51;;;;;;;;;;;;;;;2.43;100.00;96300.84;1038269;28;19913;-71
2022/02/11 06:11:21;;;;;;;;;;;;;;;2.41;100.00;96296.84;1039311;28;19921;-73
2022/02/11 06:11:51;;;;;;;;;;;;;;;2.40;100.00;96298.66;1035162;28;19963;-72
2022/02/11 06:12:22;;;;;;;;;;;;;;;2.36;100.00;96300.84;1030873;28;19924;-71
2022/02/11 06:12:52;;;;;;;;;;;;;;;2.35;100.00;96301.84;1027166;28;20355;-71
2022/02/11 06:13:22;;;;;;;;;;;;;;;2.35;100.00;96303.63;1022427;28;19984;-72
2022/02/11 06:13:53;;;;;;;;;;;;;;;2.34;100.00;96307.19;1027105;28;19921;-72
2022/02/11 06:14:23;;;;;;;;;;;;;;;2.35;100.00;96319.97;1031563;28;19917;-72
2022/02/11 06:14:53;;;;;;;;;;;;;;;2.31;100.00;96303.22;1031283;28;19921;-72
2022/02/11 06:15:24;;;;;;;;;;;;;;;2.31;100.00;96303.22;1035147;28;20379;-72
2022/02/11 06:15:56;;;;;;;;;;;;;;;2.31;100.00;96302.41;1030986;28;19918;-73
2022/02/11 06:16:27;;;;;;;;;;;;;;;2.32;100.00;96314.38;1030787;28;19924;-73
2022/02/11 06:16:57;;;;;;;;;;;;;;;2.32;100.00;96310.00;1023466;29;19921;-73
2022/02/11 06:17:27;;;;;;;;;;;;;;;2.32;100.00;96316.97;1026229;28;19914;-72
2022/02/11 06:17:57;;;;;;;;;;;;;;;2.32;100.00;96314.38;1031140;28;19921;-73
2022/02/11 06:18:28;;;;;;;;;;;;;;;2.33;100.00;96313.38;1035270;28;19914;-72
2022/02/11 06:18:58;;;;;;;;;;;;;;;2.32;100.00;96315.16;1034881;28;19917;-72
2022/02/11 06:19:28;;;;;;;;;;;;;;;2.33;100.00;96315.97;1035247;28;20382;-72
2022/02/11 06:20:00;;;;;;;;;;;;;;;2.29;100.00;96325.91;1035345;28;20458;-72
2022/02/11 06:20:31;;;;;;;;;;;;;;;2.30;100.00;96316.34;1027715;28;20387;-72
2022/02/11 06:21:01;;;;;;;;;;;;;;;2.29;100.00;96327.72;1033764;28;19917;-71
2022/02/11 06:21:31;;;;;;;;;;;;;;;2.25;100.00;96323.91;1030309;28;19918;-72
2022/02/11 06:22:02;;;;;;;;;;;;;;;2.26;100.00;96323.72;1022680;29;19918;-72
2022/02/11 06:22:33;;;;;;;;;;;;;;;2.28;100.00;96316.56;1026691;28;19922;-72
2022/02/11 06:23:03;;;;;;;;;;;;;;;2.26;100.00;96305.59;1026967;28;19925;-72
2022/02/11 06:23:34;;;;;;;;;;;;;;;2.28;100.00;96315.75;1030693;28;19917;-70
2022/02/11 06:24:04;;;;;;;;;;;;;;;2.29;100.00;96322.53;1034721;28;19921;-72
2022/02/11 06:24:35;;;;;;;;;;;;;;;2.27;100.00;96329.69;1035260;28;20454;-72
2022/02/11 06:25:05;;;;;;;;;;;;;;;2.25;100.00;96324.72;1027421;28;19920;-71
2022/02/11 06:25:35;;;;;;;;;;;;;;;2.25;100.00;96332.47;1031061;28;19921;-72
2022/02/11 06:26:06;;;;;;;;;;;;;;;2.24;100.00;96333.47;1029796;28;19910;-72
2022/02/11 06:26:36;;;;;;;;;;;;;;;2.25;100.00;96329.09;1031270;28;20482;-72
2022/02/11 06:27:12;;;;;;;;;;;;;;;2.23;100.00;96337.03;1031134;28;19979;-73
2022/02/11 06:27:45;;;;;;;;;;;;;;;2.24;100.00;96343.00;1031157;28;19940;-72
2022/02/11 06:28:16;;;;;;;;;;;;;;;2.21;100.00;96343.41;1035062;28;19921;-72
2022/02/11 06:28:46;;;;;;;;;;;;;;;2.20;100.00;96336.63;1031181;28;19940;-72
2022/02/11 06:29:17;;;;;;;;;;;;;;;2.21;100.00;96344.19;1031254;28;20551;-72
2022/02/11 06:29:48;;;;;;;;;;;;;;;2.20;100.00;96347.78;1031054;28;19949;-72
2022/02/11 06:30:21;;;;;;;;;;;;;;;2.21;100.00;96340.81;1030871;28;19917;-72
2022/02/11 06:30:52;;;;;;;;;;;;;;;2.20;100.00;96344.41;1031137;28;19949;-72
2022/02/11 06:31:26;;;;;;;;;;;;;;;2.20;100.00;96347.00;1027036;28;19918;-72
2022/02/11 06:31:56;;;;;;;;;;;;;;;2.19;100.00;96350.59;1029106;28;19918;-72
2022/02/11 06:32:26;;;;;;;;;;;;;;;2.19;100.00;96348.00;1035063;28;19918;-72
2022/02/11 06:32:56;;;;;;;;;;;;;;;2.19;100.00;96345.41;1035524;28;19925;-72
2022/02/11 06:33:27;;;;;;;;;;;;;;;2.19;100.00;96358.34;1034801;28;20028;-71
2022/02/11 06:33:57;;;;;;;;;;;;;;;2.19;100.00;96355.75;1034620;28;19909;-72
2022/02/11 06:34:27;;;;;;;;;;;;;;;2.19;100.00;96363.53;1032795;28;19920;-73